createdAt,value
2017-12-23T00:01:30.296Z,39.23
2017-12-23T00:03:59.405Z,40.43
2017-12-23T00:06:28.485Z,38.40
2017-12-23T00:08:56.747Z,36.80
2017-12-23T00:11:25.074Z,37.47
2017-12-23T00:13:53.406Z,38.07
2017-12-23T00:16:22.535Z,36.97
2017-12-23T00:18:50.847Z,36.80
2017-12-23T00:21:19.219Z,36.63
2017-12-23T00:23:47.502Z,37.07
2017-12-23T00:26:15.813Z,36.07
2017-12-23T00:28:44.112Z,36.40
2017-12-23T00:31:12.395Z,36.70
2017-12-23T00:33:40.701Z,38.13
2017-12-23T00:36:09.853Z,34.73
2017-12-23T00:38:38.148Z,34.70
2017-12-23T00:41:06.448Z,31.53
2017-12-23T00:43:35.482Z,33.60
2017-12-23T00:46:03.821Z,35.03
2017-12-23T00:48:32.100Z,34.17
2017-12-23T00:51:00.373Z,34.60
2017-12-23T00:53:28.745Z,35.83
2017-12-23T00:55:57.051Z,37.10
2017-12-23T00:58:26.100Z,36.50
2017-12-23T01:00:54.398Z,36.57
2017-12-23T01:03:22.664Z,36.50
2017-12-23T01:05:51.378Z,38.30
2017-12-23T01:08:20.978Z,39.77
2017-12-23T01:10:49.256Z,42.63
2017-12-23T01:13:18.321Z,50.17
2017-12-23T01:15:46.603Z,39.90
2017-12-23T01:18:15.777Z,32.47
2017-12-23T01:20:44.058Z,36.10
2017-12-23T01:23:12.350Z,33.73
2017-12-23T01:25:40.660Z,37.63
2017-12-23T01:28:08.954Z,36.30
2017-12-23T01:30:37.986Z,38.43
2017-12-23T01:33:06.305Z,36.80
2017-12-23T01:35:35.374Z,37.40
2017-12-23T01:38:03.653Z,33.97
2017-12-23T01:40:31.925Z,36.20
2017-12-23T01:43:00.248Z,37.13
2017-12-23T01:45:28.481Z,34.53
2017-12-23T01:47:56.772Z,35.57
2017-12-23T01:50:25.010Z,35.07
2017-12-23T01:52:53.310Z,38.90
2017-12-23T01:55:21.589Z,34.90
2017-12-23T01:57:49.872Z,34.80
2017-12-23T02:00:18.118Z,35.93
2017-12-23T02:02:46.428Z,38.13
2017-12-23T02:05:14.717Z,37.30
2017-12-23T02:07:42.972Z,35.73
2017-12-23T02:10:11.263Z,36.10
2017-12-23T02:12:39.538Z,35.20
2017-12-23T02:15:07.811Z,32.90
2017-12-23T02:17:36.111Z,30.80
2017-12-23T02:20:04.390Z,30.17
2017-12-23T02:22:32.653Z,27.00
2017-12-23T02:25:00.929Z,27.37
2017-12-23T02:27:29.199Z,27.13
2017-12-23T02:29:57.493Z,27.77
2017-12-23T02:32:26.665Z,27.40
2017-12-23T02:34:55.716Z,28.10
2017-12-23T02:37:24.012Z,23.77
2017-12-23T02:39:53.072Z,27.47
2017-12-23T02:42:21.376Z,26.77
2017-12-23T02:44:50.438Z,28.50
2017-12-23T02:47:18.707Z,26.40
2017-12-23T02:49:46.954Z,25.83
2017-12-23T02:52:16.026Z,25.73
2017-12-23T02:54:45.107Z,23.40
2017-12-23T02:57:13.436Z,24.17
2017-12-23T02:59:41.779Z,22.37
2017-12-23T03:02:10.820Z,23.33
2017-12-23T03:04:39.105Z,22.40
2017-12-23T03:07:07.381Z,25.50
2017-12-23T03:09:36.453Z,24.50
2017-12-23T03:12:04.785Z,24.10
2017-12-23T03:14:33.064Z,20.70
2017-12-23T03:17:01.370Z,24.57
2017-12-23T03:19:29.637Z,18.40
2017-12-23T03:21:57.887Z,22.70
2017-12-23T03:24:26.174Z,19.70
2017-12-23T03:26:54.456Z,18.97
2017-12-23T03:29:22.758Z,22.50
2017-12-23T03:31:51.028Z,20.23
2017-12-23T03:34:19.284Z,20.07
2017-12-23T03:36:47.616Z,18.30
2017-12-23T03:39:15.862Z,18.00
2017-12-23T03:41:44.177Z,18.87
2017-12-23T03:44:12.457Z,19.87
2017-12-23T03:46:40.803Z,16.97
2017-12-23T03:49:09.147Z,17.40
2017-12-23T03:51:38.235Z,17.53
2017-12-23T03:54:06.740Z,14.70
2017-12-23T03:56:34.986Z,14.73
2017-12-23T03:59:03.354Z,14.07
2017-12-23T04:01:31.682Z,14.20
2017-12-23T04:03:59.920Z,14.00
2017-12-23T04:06:28.218Z,13.20
2017-12-23T04:08:56.528Z,13.83
2017-12-23T04:11:25.541Z,14.33
2017-12-23T04:13:53.823Z,14.97
2017-12-23T04:16:22.076Z,15.10
2017-12-23T04:18:51.133Z,15.73
2017-12-23T04:21:19.464Z,15.60
2017-12-23T04:23:48.475Z,15.43
2017-12-23T04:26:16.728Z,14.30
2017-12-23T04:28:45.819Z,16.10
2017-12-23T04:31:14.847Z,16.70
2017-12-23T04:33:43.131Z,16.20
2017-12-23T04:36:11.379Z,15.23
2017-12-23T04:38:39.690Z,16.17
2017-12-23T04:41:07.956Z,16.60
2017-12-23T04:43:36.267Z,17.33
2017-12-23T04:46:04.526Z,16.60
2017-12-23T04:48:32.799Z,17.40
2017-12-23T04:51:01.945Z,15.83
2017-12-23T04:53:30.212Z,15.77
2017-12-23T04:55:58.481Z,16.70
2017-12-23T04:58:26.827Z,16.70
2017-12-23T05:00:55.147Z,16.70
2017-12-23T05:03:23.396Z,15.90
2017-12-23T05:05:51.720Z,15.53
2017-12-23T05:08:19.992Z,14.03
2017-12-23T05:10:48.256Z,14.40
2017-12-23T05:13:17.590Z,13.23
2017-12-23T05:15:45.890Z,14.60
2017-12-23T05:18:14.139Z,14.97
2017-12-23T05:20:42.410Z,14.10
2017-12-23T05:23:10.712Z,12.37
2017-12-23T05:25:38.960Z,15.20
2017-12-23T05:28:07.308Z,13.57
2017-12-23T05:30:35.573Z,12.47
2017-12-23T05:33:03.846Z,13.50
2017-12-23T05:35:32.265Z,12.93
2017-12-23T05:38:01.328Z,15.37
2017-12-23T05:40:29.607Z,10.70
2017-12-23T05:42:57.866Z,13.33
2017-12-23T05:45:26.139Z,13.17
2017-12-23T05:47:54.426Z,13.30
2017-12-23T05:50:22.698Z,14.57
2017-12-23T05:52:51.209Z,12.17
2017-12-23T05:55:19.531Z,10.33
2017-12-23T05:57:48.563Z,12.60
2017-12-23T06:00:16.841Z,12.70
2017-12-23T06:02:45.094Z,11.97
2017-12-23T06:05:13.384Z,11.67
2017-12-23T06:07:41.661Z,12.93
2017-12-23T06:10:09.954Z,10.60
2017-12-23T06:12:38.226Z,10.70
2017-12-23T06:15:06.531Z,11.27
2017-12-23T06:17:35.634Z,11.10
2017-12-23T06:20:03.964Z,12.40
2017-12-23T06:22:32.222Z,12.00
2017-12-23T06:25:00.502Z,12.00
2017-12-23T06:27:28.802Z,13.80
2017-12-23T06:29:57.092Z,14.53
2017-12-23T06:32:25.352Z,13.03
2017-12-23T06:34:53.682Z,15.10
2017-12-23T06:37:21.951Z,13.50
2017-12-23T06:39:51.002Z,13.90
2017-12-23T06:42:19.271Z,16.27
2017-12-23T06:44:47.583Z,16.77
2017-12-23T06:47:15.853Z,16.63
2017-12-23T06:49:44.194Z,18.57
2017-12-23T06:52:12.470Z,16.80
2017-12-23T06:54:41.538Z,20.97
2017-12-23T06:57:10.648Z,19.33
2017-12-23T06:59:38.908Z,22.13
2017-12-23T07:02:07.207Z,20.03
2017-12-23T07:04:36.236Z,20.87
2017-12-23T07:07:04.614Z,21.47
2017-12-23T07:09:32.903Z,23.43
2017-12-23T07:12:01.189Z,25.67
2017-12-23T07:14:29.461Z,24.00
2017-12-23T07:16:57.887Z,23.10
2017-12-23T07:19:26.142Z,21.20
2017-12-23T07:21:54.429Z,26.63
2017-12-23T07:24:23.514Z,21.37
2017-12-23T07:26:51.999Z,25.37
2017-12-23T07:29:20.245Z,22.80
2017-12-23T07:31:48.514Z,24.67
2017-12-23T07:34:17.794Z,21.27
2017-12-23T07:36:46.116Z,20.93
2017-12-23T07:39:14.458Z,23.40
2017-12-23T07:41:43.483Z,24.53
2017-12-23T07:44:11.831Z,24.20
2017-12-23T07:46:40.886Z,23.80
2017-12-23T07:49:09.160Z,21.90
2017-12-23T07:51:37.610Z,20.73
2017-12-23T07:54:05.953Z,22.00
2017-12-23T07:56:34.267Z,21.77
2017-12-23T07:59:02.563Z,23.03
2017-12-23T08:01:31.711Z,20.80
2017-12-23T08:04:00.822Z,21.87
2017-12-23T08:06:29.159Z,21.20
2017-12-23T08:08:57.450Z,22.23
2017-12-23T08:11:25.781Z,20.63
2017-12-23T08:13:54.049Z,23.10
2017-12-23T08:16:22.343Z,21.67
2017-12-23T08:18:50.686Z,23.43
2017-12-23T08:21:19.717Z,23.10
2017-12-23T08:23:47.967Z,22.17
2017-12-23T08:26:16.245Z,20.17
2017-12-23T08:28:44.533Z,19.73
2017-12-23T08:31:12.789Z,20.37
2017-12-23T08:33:41.797Z,18.43
2017-12-23T08:36:10.047Z,17.60
2017-12-23T08:38:39.127Z,16.13
2017-12-23T08:41:07.420Z,16.97
2017-12-23T08:43:36.478Z,17.90
2017-12-23T08:46:04.826Z,16.97
2017-12-23T08:48:33.962Z,17.50
2017-12-23T08:51:02.196Z,15.50
2017-12-23T08:53:30.642Z,16.63
2017-12-23T08:55:58.898Z,17.30
2017-12-23T08:58:27.165Z,14.47
2017-12-23T09:00:55.422Z,18.70
2017-12-23T09:03:23.701Z,14.70
2017-12-23T09:05:51.993Z,16.70
2017-12-23T09:08:20.344Z,17.50
2017-12-23T09:10:49.411Z,15.30
2017-12-23T09:13:17.785Z,16.17
2017-12-23T09:15:46.137Z,17.80
2017-12-23T09:18:14.429Z,15.50
2017-12-23T09:20:42.679Z,16.90
2017-12-23T09:23:12.404Z,18.67
2017-12-23T09:25:40.666Z,23.37
2017-12-23T09:28:08.943Z,19.63
2017-12-23T09:30:37.186Z,18.00
2017-12-23T09:33:05.592Z,20.10
2017-12-23T09:35:33.846Z,20.13
2017-12-23T09:38:02.152Z,19.13
2017-12-23T09:40:30.474Z,21.43
2017-12-23T09:42:58.804Z,20.73
2017-12-23T09:45:27.873Z,23.97
2017-12-23T09:47:57.025Z,21.70
2017-12-23T09:50:25.370Z,22.97
2017-12-23T09:52:54.359Z,24.13
2017-12-23T09:55:23.604Z,23.53
2017-12-23T09:57:51.943Z,25.07
2017-12-23T10:00:20.200Z,20.40
2017-12-23T10:02:48.572Z,20.47
2017-12-23T10:05:17.836Z,17.33
2017-12-23T10:07:46.354Z,19.17
2017-12-23T10:10:25.499Z,18.80
2017-12-23T10:12:54.555Z,20.80
2017-12-23T10:15:22.873Z,24.30
2017-12-23T10:17:51.281Z,18.87
2017-12-23T10:20:19.601Z,20.00
2017-12-23T10:22:48.702Z,19.80
2017-12-23T10:25:17.955Z,21.10
2017-12-23T10:27:46.290Z,20.13
2017-12-23T10:30:14.633Z,18.53
2017-12-23T10:32:42.935Z,21.53
2017-12-23T10:35:13.455Z,17.37
2017-12-23T10:37:41.716Z,19.17
2017-12-23T10:40:10.282Z,15.97
2017-12-23T10:42:38.594Z,17.53
2017-12-23T10:45:07.899Z,18.97
2017-12-23T10:47:36.278Z,19.03
2017-12-23T10:50:04.659Z,17.63
2017-12-23T10:52:32.962Z,20.87
2017-12-23T10:55:02.087Z,17.87
2017-12-23T10:57:31.301Z,17.17
2017-12-23T10:59:59.716Z,20.10
2017-12-23T11:02:28.036Z,17.20
2017-12-23T11:04:57.185Z,18.00
2017-12-23T11:07:25.445Z,15.47
2017-12-23T11:09:53.803Z,15.00
2017-12-23T11:12:24.054Z,13.87
2017-12-23T11:14:52.376Z,15.57
2017-12-23T11:17:20.680Z,15.50
2017-12-23T11:19:49.083Z,11.80
2017-12-23T11:22:17.367Z,11.33
2017-12-23T11:24:45.668Z,11.37
2017-12-23T11:27:14.053Z,13.53
2017-12-23T11:29:43.150Z,13.20
2017-12-23T11:32:12.259Z,17.90
2017-12-23T11:34:40.564Z,11.07
2017-12-23T11:37:08.963Z,11.60
2017-12-23T11:39:37.331Z,11.33
2017-12-23T11:42:05.778Z,11.40
2017-12-23T11:44:34.062Z,10.57
2017-12-23T11:47:03.261Z,11.80
2017-12-23T11:49:32.273Z,11.17
2017-12-23T11:52:01.363Z,10.20
2017-12-23T11:54:29.623Z,11.20
2017-12-23T11:56:57.974Z,10.27
2017-12-23T11:59:26.282Z,11.60
2017-12-23T12:01:54.630Z,10.83
2017-12-23T12:04:26.555Z,9.60
2017-12-23T12:06:54.829Z,10.47
2017-12-23T12:09:23.904Z,23.57
2017-12-23T12:11:52.385Z,10.17
2017-12-23T12:14:20.802Z,10.80
2017-12-23T12:16:49.176Z,9.73
2017-12-23T12:19:17.549Z,10.97
2017-12-23T12:21:45.834Z,11.13
2017-12-23T12:24:14.162Z,11.37
2017-12-23T12:26:43.187Z,10.10
2017-12-23T12:29:11.562Z,12.13
2017-12-23T12:31:40.047Z,9.50
2017-12-23T12:34:09.136Z,14.43
2017-12-23T12:36:37.514Z,10.70
2017-12-23T12:39:06.617Z,13.80
2017-12-23T12:41:34.973Z,11.70
2017-12-23T12:44:03.301Z,11.43
2017-12-23T12:46:31.856Z,11.93
2017-12-23T12:49:00.166Z,12.13
2017-12-23T12:51:28.589Z,12.27
2017-12-23T12:53:56.911Z,11.20
2017-12-23T12:56:25.919Z,11.87
2017-12-23T12:58:54.232Z,12.77
2017-12-23T13:01:22.556Z,13.03
2017-12-23T13:03:51.023Z,17.00
2017-12-23T13:06:20.111Z,36.80
2017-12-23T13:08:48.844Z,10.10
2017-12-23T13:11:17.280Z,11.60
2017-12-23T13:13:45.605Z,13.43
2017-12-23T13:16:13.941Z,10.20
2017-12-23T13:18:42.346Z,14.00
2017-12-23T13:21:10.701Z,15.30
2017-12-23T13:23:39.194Z,9.63
2017-12-23T13:26:07.588Z,13.13
2017-12-23T13:28:36.651Z,9.93
2017-12-23T13:31:04.893Z,10.93
2017-12-23T13:33:33.210Z,8.83
2017-12-23T13:36:01.451Z,9.70
2017-12-23T13:38:30.594Z,13.73
2017-12-23T13:40:59.703Z,14.73
2017-12-23T13:43:28.804Z,9.10
2017-12-23T13:45:57.176Z,10.37
2017-12-23T13:48:26.306Z,14.40
2017-12-23T13:50:55.742Z,9.80
2017-12-23T13:53:24.176Z,10.73
2017-12-23T13:55:52.581Z,14.00
2017-12-23T13:58:20.894Z,10.30
2017-12-23T14:00:49.392Z,11.37
2017-12-23T14:03:18.564Z,17.93
2017-12-23T14:05:46.815Z,14.50
2017-12-23T14:08:15.137Z,11.83
2017-12-23T14:10:44.240Z,14.77
2017-12-23T14:13:12.544Z,14.63
2017-12-23T14:15:40.856Z,12.87
2017-12-23T14:18:09.980Z,10.43
2017-12-23T14:20:38.285Z,17.47
2017-12-23T14:23:06.630Z,10.80
2017-12-23T14:25:35.015Z,11.63
2017-12-23T14:28:03.384Z,9.37
2017-12-23T14:30:32.286Z,10.47
2017-12-23T14:33:01.816Z,8.60
2017-12-23T14:35:30.315Z,12.40
2017-12-23T14:37:59.523Z,11.27
2017-12-23T14:40:28.719Z,9.20
2017-12-23T14:42:57.124Z,8.90
2017-12-23T14:45:25.404Z,9.37
2017-12-23T14:47:53.744Z,14.23
2017-12-23T14:50:22.041Z,9.73
2017-12-23T14:52:50.523Z,9.73
2017-12-23T14:55:18.836Z,10.03
2017-12-23T14:57:47.169Z,9.10
2017-12-23T15:00:15.582Z,8.03
2017-12-23T15:02:43.887Z,8.70
2017-12-23T15:05:12.226Z,10.20
2017-12-23T15:07:41.455Z,7.87
2017-12-23T15:10:09.838Z,8.27
2017-12-23T15:12:38.162Z,28.33
2017-12-23T15:15:06.547Z,8.10
2017-12-23T15:17:35.590Z,7.27
2017-12-23T15:20:03.881Z,6.80
2017-12-23T15:22:32.201Z,11.73
2017-12-23T15:25:00.559Z,7.47
2017-12-23T15:27:28.811Z,7.87
2017-12-23T15:29:57.920Z,6.10
2017-12-23T15:32:26.401Z,8.33
2017-12-23T15:34:54.735Z,8.73
2017-12-23T15:37:23.172Z,9.60
2017-12-23T15:39:51.558Z,8.20
2017-12-23T15:42:19.925Z,9.20
2017-12-23T15:44:49.068Z,7.30
2017-12-23T15:47:17.350Z,6.73
2017-12-23T15:49:46.716Z,8.63
2017-12-23T15:52:16.005Z,8.93
2017-12-23T15:54:44.307Z,8.07
2017-12-23T15:57:12.581Z,8.00
2017-12-23T15:59:40.870Z,9.20
2017-12-23T16:02:09.929Z,9.40
2017-12-23T16:04:39.023Z,9.27
2017-12-23T16:07:07.449Z,10.57
2017-12-23T16:09:35.787Z,9.80
2017-12-23T16:12:04.280Z,10.00
2017-12-23T16:14:32.783Z,10.13
2017-12-23T16:17:01.132Z,11.70
2017-12-23T16:19:29.440Z,13.57
2017-12-23T16:21:57.750Z,11.23
2017-12-23T16:24:26.082Z,12.37
2017-12-23T16:26:55.363Z,13.70
2017-12-23T16:29:24.486Z,10.97
2017-12-23T16:31:53.637Z,13.03
2017-12-23T16:34:22.787Z,13.37
2017-12-23T16:36:51.125Z,14.77
2017-12-23T16:39:19.541Z,15.97
2017-12-23T16:41:47.898Z,13.20
2017-12-23T16:44:16.584Z,12.63
2017-12-23T16:46:44.980Z,16.80
2017-12-23T16:49:14.183Z,14.80
2017-12-23T16:51:42.691Z,14.93
2017-12-23T16:54:11.853Z,15.80
2017-12-23T16:56:40.192Z,14.73
2017-12-23T16:59:08.526Z,14.63
2017-12-23T17:01:36.847Z,21.17
2017-12-23T17:04:05.236Z,13.83
2017-12-23T17:06:33.740Z,15.37
2017-12-23T17:09:02.042Z,15.23
2017-12-23T17:11:30.401Z,14.87
2017-12-23T17:13:58.718Z,13.23
2017-12-23T17:16:27.007Z,16.63
2017-12-23T17:18:55.313Z,14.70
2017-12-23T17:21:23.606Z,14.80
2017-12-23T17:23:51.985Z,14.63
2017-12-23T17:26:20.564Z,15.70
2017-12-23T17:29:00.699Z,14.37
2017-12-23T17:31:29.107Z,14.20
2017-12-23T17:33:57.425Z,14.20
2017-12-23T17:36:25.776Z,15.00
2017-12-23T17:38:54.885Z,15.13
2017-12-23T17:41:23.261Z,14.23
2017-12-23T17:43:53.448Z,21.33
2017-12-23T17:46:21.879Z,20.90
2017-12-23T17:48:50.984Z,20.03
2017-12-23T17:51:19.440Z,13.90
2017-12-23T17:53:47.756Z,15.70
2017-12-23T17:56:16.084Z,17.60
2017-12-23T17:58:44.457Z,18.90
2017-12-23T18:01:12.845Z,17.93
2017-12-23T18:03:41.186Z,17.10
2017-12-23T18:06:09.599Z,19.33
2017-12-23T18:08:37.904Z,23.20
2017-12-23T18:11:07.053Z,15.83
2017-12-23T18:13:36.180Z,18.70
2017-12-23T18:16:04.672Z,16.20
2017-12-23T18:18:33.990Z,19.57
2017-12-23T18:21:02.305Z,19.73
2017-12-23T18:23:30.631Z,15.33
2017-12-23T18:25:59.018Z,15.30
2017-12-23T18:28:27.438Z,18.43
2017-12-23T18:30:55.934Z,14.30
2017-12-23T18:33:25.086Z,14.10
2017-12-23T18:35:54.195Z,14.20
2017-12-23T18:38:22.557Z,17.37
2017-12-23T18:40:50.848Z,16.13
2017-12-23T18:43:19.273Z,21.90
2017-12-23T18:45:47.587Z,21.67
2017-12-23T18:48:16.760Z,17.73
2017-12-23T18:50:45.865Z,18.73
2017-12-23T18:53:14.188Z,16.53
2017-12-23T18:55:43.222Z,21.10
2017-12-23T18:58:11.578Z,20.83
2017-12-23T19:00:39.892Z,15.57
2017-12-23T19:03:09.014Z,19.43
2017-12-23T19:05:37.346Z,18.60
2017-12-23T19:08:05.700Z,17.63
2017-12-23T19:10:34.890Z,15.40
2017-12-23T19:13:03.925Z,19.93
2017-12-23T19:15:33.045Z,18.10
2017-12-23T19:18:02.208Z,16.80
2017-12-23T19:20:30.746Z,16.63
2017-12-23T19:22:59.832Z,16.10
2017-12-23T19:25:28.939Z,20.17
2017-12-23T19:27:59.035Z,19.70
2017-12-23T19:30:27.384Z,16.47
2017-12-23T19:32:55.740Z,18.63
2017-12-23T19:35:24.042Z,16.80
2017-12-23T19:37:52.352Z,16.57
2017-12-23T19:40:21.589Z,15.13
2017-12-23T19:42:49.903Z,18.03
2017-12-23T19:45:18.272Z,18.13
2017-12-23T19:47:47.364Z,25.10
2017-12-23T19:50:15.646Z,16.97
2017-12-23T19:52:43.938Z,14.30
2017-12-23T19:55:12.272Z,16.50
2017-12-23T19:57:41.337Z,14.87
2017-12-23T20:00:09.612Z,16.07
2017-12-23T20:02:37.950Z,14.93
2017-12-23T20:05:08.174Z,16.00
2017-12-23T20:07:38.913Z,16.70
2017-12-23T20:10:08.408Z,17.07
2017-12-23T20:12:39.256Z,16.03
2017-12-23T20:15:07.574Z,17.37
2017-12-23T20:17:36.887Z,16.30
2017-12-23T20:20:05.963Z,16.27
2017-12-23T20:22:34.280Z,14.60
2017-12-23T20:25:03.384Z,16.97
2017-12-23T20:27:32.562Z,15.03
2017-12-23T20:30:01.250Z,16.53
2017-12-23T20:32:29.695Z,16.90
2017-12-23T20:34:58.106Z,17.10
2017-12-23T20:37:26.554Z,15.43
2017-12-23T20:39:54.957Z,17.30
2017-12-23T20:42:23.256Z,17.70
2017-12-23T20:44:52.548Z,17.50
2017-12-23T20:47:20.952Z,16.80
2017-12-23T20:49:49.374Z,16.23
2017-12-23T20:52:20.759Z,15.77
2017-12-23T20:54:49.263Z,15.00
2017-12-23T20:57:18.523Z,16.20
2017-12-23T20:59:46.800Z,15.90
2017-12-23T21:02:15.311Z,15.07
2017-12-23T21:04:43.654Z,16.03
2017-12-23T21:07:12.976Z,17.00
2017-12-23T21:09:41.863Z,15.17
2017-12-23T21:12:13.879Z,14.80
2017-12-23T21:14:44.641Z,15.70
2017-12-23T21:17:15.410Z,20.00
2017-12-23T21:19:46.166Z,16.60
2017-12-23T21:22:18.300Z,15.43
2017-12-23T21:24:48.738Z,15.90
2017-12-23T21:27:17.062Z,13.20
2017-12-23T21:29:45.690Z,15.67
2017-12-23T21:32:14.261Z,21.43
2017-12-23T21:34:46.880Z,16.97
2017-12-23T21:37:16.406Z,14.50
2017-12-23T21:39:45.908Z,17.93
2017-12-23T21:42:14.823Z,15.70
2017-12-23T21:44:44.892Z,15.50
2017-12-23T21:47:14.262Z,14.37
2017-12-23T21:49:42.718Z,14.47
2017-12-23T21:52:11.883Z,14.93
2017-12-23T21:54:40.369Z,18.00
2017-12-23T21:57:08.744Z,13.93
2017-12-23T21:59:37.200Z,14.00
2017-12-23T22:02:05.645Z,15.07
2017-12-23T22:07:07.668Z,17.73
2017-12-23T22:09:35.994Z,12.97
2017-12-23T22:12:04.368Z,13.63
2017-12-23T22:14:35.490Z,14.10
2017-12-23T22:17:06.605Z,14.47
2017-12-23T22:19:35.754Z,15.43
2017-12-23T22:22:08.484Z,12.47
2017-12-23T22:24:37.914Z,14.17
2017-12-23T22:27:06.269Z,14.23
2017-12-23T22:29:35.157Z,12.60
2017-12-23T22:32:05.190Z,16.50
2017-12-23T22:34:34.361Z,13.90
2017-12-23T22:37:02.789Z,13.23
2017-12-23T22:39:31.087Z,14.10
2017-12-23T22:41:59.502Z,12.43
2017-12-23T22:44:27.959Z,14.70
2017-12-23T22:46:57.115Z,12.83
2017-12-23T22:49:25.458Z,14.23
2017-12-23T22:51:53.749Z,14.00
2017-12-23T22:54:22.078Z,13.50
2017-12-23T22:56:50.353Z,18.60
2017-12-23T22:59:18.634Z,12.90
2017-12-23T23:01:47.713Z,11.63
2017-12-23T23:04:15.963Z,13.57
2017-12-23T23:06:44.259Z,14.17
2017-12-23T23:09:12.631Z,18.70
2017-12-23T23:11:40.890Z,14.83
2017-12-23T23:14:10.035Z,14.87
2017-12-23T23:16:39.184Z,16.17
2017-12-23T23:19:07.645Z,15.00
2017-12-23T23:21:36.137Z,14.40
2017-12-23T23:24:04.570Z,15.97
2017-12-23T23:26:33.004Z,14.47
2017-12-23T23:29:01.413Z,15.67
2017-12-23T23:31:29.752Z,13.57
2017-12-23T23:33:58.149Z,15.87
2017-12-23T23:36:27.511Z,15.40
2017-12-23T23:38:56.692Z,14.90
2017-12-23T23:41:25.356Z,16.50
2017-12-23T23:43:53.815Z,16.33
2017-12-23T23:46:24.127Z,16.77
2017-12-23T23:48:52.818Z,17.03
2017-12-23T23:51:21.148Z,15.60
2017-12-23T23:53:49.578Z,16.93
2017-12-23T23:56:17.834Z,16.20
2017-12-23T23:58:47.503Z,15.20
